createdAt,value
2023-09-09T00:00:38.301Z,5.40
2023-09-09T00:03:06.602Z,5.50
2023-09-09T00:05:34.996Z,5.70
2023-09-09T00:15:39.780Z,5.90
2023-09-09T00:18:07.496Z,5.50
2023-09-09T00:20:40.516Z,5.50
2023-09-09T00:23:11.166Z,4.70
2023-09-09T00:25:39.262Z,5.40
2023-09-09T00:28:07.652Z,5.90
2023-09-09T00:30:35.401Z,4.90
2023-09-09T00:33:04.004Z,5.00
2023-09-09T00:35:34.212Z,5.30
2023-09-09T00:38:02.206Z,5.40
2023-09-09T00:40:30.137Z,5.60
2023-09-09T00:42:57.788Z,5.50
2023-09-09T00:45:27.153Z,6.20
2023-09-09T00:47:56.362Z,5.00
2023-09-09T00:50:24.649Z,5.70
2023-09-09T00:52:52.272Z,5.20
2023-09-09T00:55:20.096Z,5.80
2023-09-09T00:57:47.756Z,5.40
2023-09-09T01:00:15.816Z,5.80
2023-09-09T01:02:43.634Z,5.70
2023-09-09T01:05:11.742Z,5.90
2023-09-09T01:07:46.391Z,5.00
2023-09-09T01:10:15.888Z,5.80
2023-09-09T01:12:43.586Z,5.00
2023-09-09T01:15:11.948Z,5.30
2023-09-09T01:17:39.860Z,5.20
2023-09-09T01:20:10.968Z,6.10
2023-09-09T01:22:38.670Z,5.50
2023-09-09T01:25:06.788Z,5.70
2023-09-09T01:27:34.718Z,5.60
2023-09-09T01:30:02.366Z,5.60
2023-09-09T01:32:30.135Z,5.20
2023-09-09T01:34:59.196Z,5.60
2023-09-09T01:37:27.510Z,4.90
2023-09-09T01:39:55.401Z,5.00
2023-09-09T01:42:23.130Z,5.00
2023-09-09T01:44:51.154Z,4.80
2023-09-09T01:47:18.761Z,5.30
2023-09-09T01:49:46.606Z,4.70
2023-09-09T01:52:14.251Z,5.20
2023-09-09T01:54:42.073Z,5.20
2023-09-09T01:57:09.703Z,4.80
2023-09-09T01:59:37.650Z,4.80
2023-09-09T02:02:05.370Z,5.20
2023-09-09T02:04:33.086Z,5.10
2023-09-09T02:07:00.660Z,4.70
2023-09-09T02:09:28.308Z,4.70
2023-09-09T02:11:55.937Z,5.20
2023-09-09T02:14:24.553Z,4.80
2023-09-09T02:16:52.247Z,4.60
2023-09-09T02:19:19.878Z,4.10
2023-09-09T02:21:47.656Z,4.50
2023-09-09T02:24:15.642Z,4.60
2023-09-09T02:26:43.262Z,4.90
2023-09-09T02:29:10.901Z,4.90
2023-09-09T02:31:38.538Z,4.40
2023-09-09T02:34:06.268Z,5.30
2023-09-09T02:36:33.987Z,6.70
2023-09-09T02:39:01.875Z,5.80
2023-09-09T02:41:30.763Z,5.20
2023-09-09T02:43:58.388Z,5.10
2023-09-09T02:46:26.346Z,5.00
2023-09-09T02:48:54.051Z,5.70
2023-09-09T02:51:21.777Z,5.60
2023-09-09T02:53:49.418Z,5.10
2023-09-09T02:56:17.348Z,5.20
2023-09-09T02:58:45.112Z,5.10
2023-09-09T03:01:13.010Z,4.50
2023-09-09T03:03:40.984Z,5.00
2023-09-09T03:06:11.695Z,4.70
2023-09-09T03:08:39.449Z,4.60
2023-09-09T03:11:07.184Z,4.60
2023-09-09T03:13:35.463Z,4.70
2023-09-09T03:16:05.116Z,4.90
2023-09-09T03:18:33.153Z,5.90
2023-09-09T03:21:01.061Z,6.10
2023-09-09T03:23:28.745Z,5.70
2023-09-09T03:25:56.451Z,4.60
2023-09-09T03:28:24.224Z,5.70
2023-09-09T03:30:59.649Z,5.00
2023-09-09T03:33:29.717Z,6.10
2023-09-09T03:35:57.427Z,5.40
2023-09-09T03:38:25.113Z,5.40
2023-09-09T03:40:52.848Z,4.80
2023-09-09T03:43:20.720Z,5.20
2023-09-09T03:45:54.186Z,4.90
2023-09-09T03:48:22.082Z,5.00
2023-09-09T03:50:49.858Z,5.00
2023-09-09T03:53:17.675Z,4.50
2023-09-09T03:55:45.550Z,4.70
2023-09-09T03:58:13.265Z,4.70
2023-09-09T04:00:41.044Z,4.70
2023-09-09T04:03:10.151Z,4.70
2023-09-09T04:05:37.968Z,4.80
2023-09-09T04:08:10.518Z,4.40
2023-09-09T04:10:38.455Z,4.50
2023-09-09T04:13:07.066Z,4.40
2023-09-09T04:15:35.102Z,4.90
2023-09-09T04:18:02.929Z,4.30
2023-09-09T04:20:30.677Z,4.90
2023-09-09T04:22:58.783Z,4.10
2023-09-09T04:25:27.573Z,4.60
2023-09-09T04:27:56.977Z,5.00
2023-09-09T04:30:24.779Z,4.80
2023-09-09T04:32:52.664Z,4.80
2023-09-09T04:35:20.546Z,5.20
2023-09-09T04:37:51.442Z,4.50
2023-09-09T04:40:20.854Z,4.70
2023-09-09T04:42:48.940Z,4.20
2023-09-09T04:45:16.850Z,6.20
2023-09-09T04:47:44.784Z,8.30
2023-09-09T04:50:13.141Z,10.60
2023-09-09T04:52:41.263Z,13.00
2023-09-09T04:55:09.558Z,18.20
2023-09-09T04:57:37.367Z,21.20
2023-09-09T05:00:08.394Z,20.20
2023-09-09T05:02:37.804Z,28.90
2023-09-09T05:05:07.062Z,25.10
2023-09-09T05:07:37.052Z,20.90
2023-09-09T05:10:07.828Z,18.50
2023-09-09T05:12:40.121Z,13.90
2023-09-09T05:15:11.569Z,6.30
2023-09-09T05:17:40.140Z,5.60
2023-09-09T05:20:08.990Z,4.10
2023-09-09T05:22:38.111Z,3.90
2023-09-09T05:25:06.718Z,3.30
2023-09-09T05:27:34.550Z,3.90
2023-09-09T05:30:02.473Z,3.70
2023-09-09T05:32:31.228Z,4.50
2023-09-09T05:34:59.420Z,3.90
2023-09-09T05:37:27.927Z,4.00
2023-09-09T05:39:56.032Z,3.70
2023-09-09T05:42:24.837Z,3.40
2023-09-09T05:44:53.145Z,3.60
2023-09-09T05:47:21.689Z,4.30
2023-09-09T05:49:50.636Z,3.70
2023-09-09T05:52:18.850Z,3.70
2023-09-09T05:54:46.788Z,3.30
2023-09-09T05:57:14.784Z,3.60
2023-09-09T05:59:42.958Z,3.90
2023-09-09T06:02:13.102Z,3.60
2023-09-09T06:04:41.283Z,2.90
2023-09-09T06:07:09.584Z,2.80
2023-09-09T06:09:37.459Z,3.10
2023-09-09T06:12:05.928Z,3.30
2023-09-09T06:14:34.320Z,2.70
2023-09-09T06:17:03.934Z,3.00
2023-09-09T06:19:32.011Z,3.00
2023-09-09T06:22:00.081Z,3.10
2023-09-09T06:24:28.977Z,3.00
2023-09-09T06:26:57.841Z,3.20
2023-09-09T06:29:27.464Z,3.20
2023-09-09T06:31:55.834Z,2.70
2023-09-09T06:34:24.099Z,2.70
2023-09-09T06:36:52.317Z,2.30
2023-09-09T06:39:21.169Z,2.90
2023-09-09T06:41:51.887Z,2.80
2023-09-09T06:44:26.627Z,2.60
2023-09-09T06:46:57.883Z,2.40
2023-09-09T06:49:27.916Z,3.00
2023-09-09T06:51:57.783Z,2.50
2023-09-09T06:54:27.899Z,2.70
2023-09-09T06:56:58.923Z,2.40
2023-09-09T06:59:28.943Z,2.60
2023-09-09T07:01:59.242Z,2.50
2023-09-09T07:04:29.997Z,3.00
2023-09-09T07:07:12.022Z,2.30
2023-09-09T07:09:44.964Z,2.20
2023-09-09T07:12:15.435Z,3.20
2023-09-09T07:14:46.017Z,2.60
2023-09-09T07:17:16.969Z,3.50
2023-09-09T07:19:47.942Z,2.40
2023-09-09T07:22:18.794Z,2.40
2023-09-09T07:24:49.462Z,2.30
2023-09-09T07:27:19.971Z,2.70
2023-09-09T07:29:50.996Z,2.10
2023-09-09T07:32:23.561Z,1.80
2023-09-09T07:34:53.977Z,2.30
2023-09-09T07:37:23.882Z,2.00
2023-09-09T07:47:17.556Z,2.40
2023-09-09T07:57:25.732Z,2.20
2023-09-09T07:59:53.566Z,2.40
2023-09-09T08:02:21.248Z,2.30
2023-09-09T08:04:49.057Z,1.80
2023-09-09T08:07:16.799Z,2.10
2023-09-09T08:09:44.909Z,2.40
2023-09-09T08:12:12.825Z,2.40
2023-09-09T08:14:42.646Z,2.60
2023-09-09T08:17:10.737Z,2.30
2023-09-09T08:19:38.621Z,2.40
2023-09-09T08:22:06.735Z,1.80
2023-09-09T08:24:34.637Z,2.40
2023-09-09T08:27:02.569Z,2.10
2023-09-09T08:29:30.463Z,3.00
2023-09-09T08:31:58.391Z,2.20
2023-09-09T08:34:26.712Z,2.60
2023-09-09T08:36:54.375Z,2.10
2023-09-09T08:39:22.656Z,2.20
2023-09-09T08:42:15.117Z,1.80
2023-09-09T08:45:20.216Z,2.40
2023-09-09T08:55:30.447Z,3.40
2023-09-09T08:57:58.425Z,1.70
2023-09-09T09:00:31.557Z,1.80
2023-09-09T09:05:27.421Z,1.40
2023-09-09T09:07:57.323Z,1.90
2023-09-09T09:10:26.782Z,1.80
2023-09-09T09:12:55.058Z,1.80
2023-09-09T09:15:23.259Z,1.70
2023-09-09T09:25:22.322Z,1.70
2023-09-09T09:35:35.523Z,1.90
2023-09-09T09:38:07.396Z,1.60
2023-09-09T09:40:36.633Z,1.90
2023-09-09T09:43:04.755Z,2.00
2023-09-09T09:47:06.279Z,2.00
2023-09-09T09:49:38.213Z,1.80
2023-09-09T09:52:25.703Z,1.90
2023-09-09T09:54:54.570Z,2.00
2023-09-09T09:57:23.140Z,1.30
2023-09-09T09:59:51.113Z,2.00
2023-09-09T10:02:38.169Z,1.50
2023-09-09T10:05:06.725Z,1.40
2023-09-09T10:07:34.958Z,1.70
2023-09-09T10:10:10.560Z,1.60
2023-09-09T10:12:53.985Z,2.40
2023-09-09T10:17:52.252Z,1.70
2023-09-09T10:20:22.006Z,1.80
2023-09-09T10:22:51.416Z,2.20
2023-09-09T10:25:19.949Z,1.80
2023-09-09T10:27:47.822Z,2.10
2023-09-09T10:30:15.614Z,1.80
2023-09-09T10:32:43.456Z,1.90
2023-09-09T10:35:11.580Z,1.70
2023-09-09T10:37:39.551Z,1.80
2023-09-09T10:40:09.263Z,2.20
2023-09-09T10:42:41.251Z,2.10
2023-09-09T10:45:25.370Z,1.60
2023-09-09T10:55:37.524Z,2.00
2023-09-09T10:58:08.040Z,1.90
2023-09-09T11:00:43.036Z,1.70
2023-09-09T11:03:23.500Z,1.20
2023-09-09T11:05:59.004Z,1.90
2023-09-09T11:08:37.215Z,1.70
2023-09-09T11:11:10.963Z,1.20
2023-09-09T11:13:43.114Z,1.70
2023-09-09T11:16:36.301Z,1.60
2023-09-09T11:19:11.940Z,1.60
2023-09-09T11:21:41.461Z,1.60
2023-09-09T11:24:09.706Z,1.50
2023-09-09T11:26:44.494Z,1.80
2023-09-09T11:29:21.488Z,1.50
2023-09-09T11:31:57.797Z,1.20
2023-09-09T11:34:33.528Z,1.70
2023-09-09T11:37:02.686Z,1.30
2023-09-09T11:39:30.565Z,2.00
2023-09-09T11:41:58.237Z,1.10
2023-09-09T11:44:25.914Z,1.60
2023-09-09T11:46:53.645Z,1.40
2023-09-09T11:49:21.567Z,1.50
2023-09-09T11:51:49.201Z,1.30
2023-09-09T11:54:21.285Z,1.00
2023-09-09T11:56:49.147Z,1.50
2023-09-09T11:59:16.981Z,1.40
2023-09-09T12:01:45.829Z,1.30
2023-09-09T12:04:16.938Z,1.10
2023-09-09T12:06:46.754Z,1.30
2023-09-09T12:09:15.278Z,1.20
2023-09-09T12:11:43.195Z,1.70
2023-09-09T12:14:14.168Z,1.60
2023-09-09T12:16:41.961Z,1.80
2023-09-09T12:19:14.919Z,1.20
2023-09-09T12:21:46.731Z,1.10
2023-09-09T12:24:14.510Z,1.50
2023-09-09T12:26:51.590Z,1.70
2023-09-09T12:29:19.357Z,1.60
2023-09-09T12:31:58.592Z,1.10
2023-09-09T12:34:27.171Z,1.40
2023-09-09T12:41:45.460Z,1.10
2023-09-09T12:44:13.108Z,1.30
2023-09-09T12:46:40.795Z,1.00
2023-09-09T12:49:08.553Z,1.30
2023-09-09T12:51:38.909Z,1.50
2023-09-09T12:54:06.636Z,1.30
2023-09-09T12:56:34.388Z,1.00
2023-09-09T12:59:02.157Z,1.80
2023-09-09T13:01:29.875Z,1.30
2023-09-09T13:03:57.632Z,1.90
2023-09-09T13:06:25.265Z,1.30
2023-09-09T13:08:53.100Z,1.30
2023-09-09T13:11:20.874Z,1.30
2023-09-09T13:13:48.551Z,1.50
2023-09-09T13:16:16.943Z,5.60
2023-09-09T13:18:44.961Z,2.20
2023-09-09T13:21:12.792Z,1.40
2023-09-09T13:23:40.724Z,1.20
2023-09-09T13:26:08.579Z,1.40
2023-09-09T13:28:36.261Z,1.30
2023-09-09T13:31:04.167Z,1.20
2023-09-09T13:33:31.864Z,1.20
2023-09-09T13:36:01.524Z,1.40
2023-09-09T13:38:30.292Z,1.20
2023-09-09T13:40:58.251Z,1.30
2023-09-09T13:43:26.378Z,1.60
2023-09-09T13:45:55.303Z,1.40
2023-09-09T13:48:23.833Z,1.00
2023-09-09T13:50:51.858Z,1.40
2023-09-09T13:53:19.629Z,1.30
2023-09-09T13:55:47.373Z,1.40
2023-09-09T13:58:15.009Z,0.90
2023-09-09T14:00:42.815Z,1.20
2023-09-09T14:03:10.651Z,1.20
2023-09-09T14:05:38.443Z,1.10
2023-09-09T14:08:06.343Z,1.30
2023-09-09T14:10:35.127Z,2.10
2023-09-09T14:13:02.788Z,1.30
2023-09-09T14:15:32.509Z,1.60
2023-09-09T14:18:00.444Z,2.30
2023-09-09T14:20:28.119Z,1.70
2023-09-09T14:22:55.840Z,1.90
2023-09-09T14:25:23.520Z,3.30
2023-09-09T14:27:51.140Z,2.10
2023-09-09T14:30:19.028Z,1.20
2023-09-09T14:32:46.864Z,1.00
2023-09-09T14:35:14.627Z,1.90
2023-09-09T14:37:42.273Z,1.80
2023-09-09T14:40:10.515Z,1.60
2023-09-09T14:42:39.712Z,1.50
2023-09-09T14:45:08.184Z,1.70
2023-09-09T14:47:35.840Z,2.60
2023-09-09T14:50:04.401Z,2.90
2023-09-09T14:52:32.160Z,1.80
2023-09-09T14:54:59.842Z,1.40
2023-09-09T14:57:27.655Z,1.40
2023-09-09T14:59:55.744Z,1.30
2023-09-09T15:02:24.722Z,1.50
2023-09-09T15:04:52.524Z,1.30
2023-09-09T15:07:21.722Z,1.50
2023-09-09T15:09:49.792Z,1.80
2023-09-09T15:12:17.521Z,1.90
2023-09-09T15:14:45.229Z,1.60
2023-09-09T15:17:13.189Z,1.40
2023-09-09T15:19:41.045Z,1.10
2023-09-09T15:22:09.788Z,1.30
2023-09-09T15:24:37.446Z,1.20
2023-09-09T15:27:05.400Z,1.50
2023-09-09T15:29:33.429Z,1.40
2023-09-09T15:32:01.187Z,1.10
2023-09-09T15:34:29.004Z,1.50
2023-09-09T15:36:56.756Z,1.70
2023-09-09T15:39:24.418Z,1.60
2023-09-09T15:41:52.180Z,1.40
2023-09-09T15:44:19.934Z,1.40
2023-09-09T15:46:47.768Z,1.60
2023-09-09T15:49:18.281Z,1.40
2023-09-09T15:51:46.614Z,1.30
2023-09-09T15:54:14.886Z,1.50
2023-09-09T15:56:42.730Z,1.50
2023-09-09T15:59:10.518Z,1.50
2023-09-09T16:01:38.735Z,1.90
2023-09-09T16:04:06.764Z,5.40
2023-09-09T16:06:34.665Z,4.50
2023-09-09T16:09:03.708Z,4.20
2023-09-09T16:11:31.436Z,3.50
2023-09-09T16:14:02.203Z,2.90
2023-09-09T16:16:30.187Z,1.90
2023-09-09T16:18:57.999Z,1.60
2023-09-09T16:21:25.782Z,1.40
2023-09-09T16:23:53.638Z,1.40
2023-09-09T16:26:21.897Z,1.40
2023-09-09T16:28:50.072Z,1.70
2023-09-09T16:31:18.097Z,1.50
2023-09-09T16:33:45.881Z,1.10
2023-09-09T16:36:13.771Z,0.90
2023-09-09T16:38:41.790Z,1.10
2023-09-09T16:41:09.809Z,1.20
2023-09-09T16:43:39.356Z,1.30
2023-09-09T16:46:07.338Z,1.00
2023-09-09T16:48:35.358Z,1.20
2023-09-09T16:51:04.047Z,1.40
2023-09-09T16:53:32.963Z,1.70
2023-09-09T16:56:02.833Z,1.50
2023-09-09T16:58:31.534Z,1.60
2023-09-09T17:00:59.894Z,1.20
2023-09-09T17:03:28.060Z,1.70
2023-09-09T17:05:58.066Z,1.50
2023-09-09T17:08:28.657Z,1.80
2023-09-09T17:10:56.710Z,1.40
2023-09-09T17:13:24.562Z,1.60
2023-09-09T17:15:52.735Z,1.30
2023-09-09T17:18:21.653Z,2.20
2023-09-09T17:20:51.586Z,1.50
2023-09-09T17:23:19.672Z,1.50
2023-09-09T17:25:47.806Z,1.70
2023-09-09T17:28:16.465Z,1.80
2023-09-09T17:30:44.919Z,2.30
2023-09-09T17:33:13.875Z,1.80
2023-09-09T17:35:43.214Z,2.60
2023-09-09T17:38:11.050Z,3.10
2023-09-09T17:40:41.523Z,6.50
2023-09-09T17:43:12.555Z,48.50
2023-09-09T17:45:43.608Z,50.50
2023-09-09T17:48:15.372Z,29.20
2023-09-09T17:50:45.859Z,19.50
2023-09-09T17:53:16.853Z,25.90
2023-09-09T17:55:47.950Z,13.70
2023-09-09T17:58:19.269Z,9.90
2023-09-09T18:00:49.980Z,9.60
2023-09-09T18:03:20.914Z,11.20
2023-09-09T18:05:51.260Z,10.80
2023-09-09T18:08:21.924Z,10.60
2023-09-09T18:10:53.272Z,11.50
2023-09-09T18:13:22.691Z,10.90
2023-09-09T18:15:53.918Z,10.60
2023-09-09T18:18:24.316Z,11.30
2023-09-09T18:20:54.341Z,10.40
2023-09-09T18:23:24.967Z,13.70
2023-09-09T18:25:58.594Z,11.00
2023-09-09T18:28:29.445Z,10.20
2023-09-09T18:31:05.063Z,10.50
2023-09-09T18:33:35.975Z,10.70
2023-09-09T18:36:06.353Z,9.60
2023-09-09T18:38:37.257Z,8.20
2023-09-09T18:47:42.411Z,7.40
2023-09-09T18:50:10.365Z,7.60
2023-09-09T18:52:37.544Z,8.30
2023-09-09T18:55:05.394Z,7.50
2023-09-09T18:57:33.056Z,7.50
2023-09-09T19:00:00.035Z,7.50
2023-09-09T19:02:27.318Z,7.60
2023-09-09T19:04:54.924Z,8.40
2023-09-09T19:07:36.198Z,7.40
2023-09-09T19:10:04.580Z,8.20
2023-09-09T19:12:32.788Z,8.30
2023-09-09T19:15:00.004Z,7.90
2023-09-09T19:17:27.572Z,8.00
2023-09-09T19:19:55.498Z,8.10
2023-09-09T19:22:24.340Z,8.30
2023-09-09T19:24:53.726Z,8.70
2023-09-09T19:27:21.010Z,9.80
2023-09-09T19:29:51.789Z,11.50
2023-09-09T19:32:18.728Z,12.10
2023-09-09T19:34:47.013Z,12.40
2023-09-09T19:37:14.003Z,10.60
2023-09-09T19:39:41.144Z,8.90
2023-09-09T19:42:10.240Z,8.70
2023-09-09T19:44:37.550Z,8.90
2023-09-09T19:47:04.950Z,10.00
2023-09-09T19:49:32.253Z,10.00
2023-09-09T19:51:59.462Z,10.70
2023-09-09T19:54:26.512Z,8.80
2023-09-09T19:56:54.376Z,9.00
2023-09-09T19:59:23.399Z,8.60
2023-09-09T20:01:50.752Z,8.20
2023-09-09T20:04:18.191Z,8.40
2023-09-09T20:06:45.592Z,7.90
2023-09-09T20:09:14.847Z,9.00
2023-09-09T20:11:41.827Z,7.90
2023-09-09T20:14:10.170Z,7.20
2023-09-09T20:16:37.285Z,6.80
2023-09-09T20:19:04.500Z,7.90
2023-09-09T20:21:31.728Z,11.00
2023-09-09T20:23:58.883Z,12.80
2023-09-09T20:26:26.031Z,11.30
2023-09-09T20:28:52.952Z,11.40
2023-09-09T20:31:19.949Z,10.00
2023-09-09T20:33:49.497Z,9.20
2023-09-09T20:36:16.789Z,8.70
2023-09-09T20:38:44.502Z,9.40
2023-09-09T20:41:12.769Z,10.60
2023-09-09T20:43:39.781Z,11.20
2023-09-09T20:46:10.827Z,9.90
2023-09-09T20:48:38.781Z,8.00
2023-09-09T20:51:06.111Z,7.30
2023-09-09T20:53:35.988Z,6.30
2023-09-09T20:56:12.894Z,8.30
2023-09-09T20:58:41.037Z,8.10
2023-09-09T21:01:08.697Z,7.70
2023-09-09T21:03:36.068Z,7.00
2023-09-09T21:06:03.690Z,6.60
2023-09-09T21:08:31.053Z,5.50
2023-09-09T21:10:58.209Z,5.50
2023-09-09T21:13:25.889Z,6.40
2023-09-09T21:15:54.260Z,5.40
2023-09-09T21:18:21.141Z,5.60
2023-09-09T21:20:48.159Z,5.40
2023-09-09T21:23:15.374Z,5.60
2023-09-09T21:25:42.509Z,5.00
2023-09-09T21:28:09.324Z,5.20
2023-09-09T21:30:37.703Z,6.90
2023-09-09T21:33:06.026Z,7.30
2023-09-09T21:35:33.213Z,8.50
2023-09-09T21:38:00.354Z,9.00
2023-09-09T21:40:27.886Z,7.70
2023-09-09T21:42:55.387Z,8.40
2023-09-09T21:45:24.400Z,8.60
2023-09-09T21:47:52.135Z,8.60
2023-09-09T21:50:19.349Z,8.10
2023-09-09T21:52:47.510Z,8.00
2023-09-09T21:55:16.561Z,6.10
2023-09-09T21:57:43.625Z,6.00
2023-09-09T22:00:22.347Z,5.90
2023-09-09T22:04:56.865Z,7.10
2023-09-09T22:07:24.858Z,8.80
2023-09-09T22:09:52.639Z,6.90
2023-09-09T22:12:20.485Z,6.80
2023-09-09T22:14:48.389Z,5.40
2023-09-09T22:17:16.279Z,5.60
2023-09-09T22:19:44.542Z,7.30
2023-09-09T22:22:13.156Z,8.60
2023-09-09T22:24:40.984Z,9.70
2023-09-09T22:27:08.928Z,7.90
2023-09-09T22:29:36.815Z,10.20
2023-09-09T22:32:05.489Z,8.20
2023-09-09T22:41:49.814Z,7.00
2023-09-09T22:51:49.767Z,7.60
2023-09-09T22:54:17.577Z,7.80
2023-09-09T22:56:45.395Z,6.10
2023-09-09T23:06:10.764Z,7.30
2023-09-09T23:08:38.887Z,6.80
2023-09-09T23:18:50.581Z,6.40
2023-09-09T23:21:19.592Z,5.00
2023-09-09T23:23:48.306Z,6.00
2023-09-09T23:34:00.466Z,6.60
2023-09-09T23:36:28.606Z,6.20
2023-09-09T23:38:56.351Z,6.80
2023-09-09T23:41:24.075Z,6.50
2023-09-09T23:43:51.814Z,6.40
2023-09-09T23:46:19.665Z,6.60
2023-09-09T23:48:47.506Z,7.40
2023-09-09T23:51:15.352Z,6.70
2023-09-09T23:53:43.182Z,6.90
2023-09-09T23:56:10.999Z,6.70
2023-09-09T23:58:38.971Z,6.80
